Radar

TAFs

KCLE 272103Z 2721/2824 18008KT 3SM -SN BR OVC030
   FM272200 16007KT 2SM -SN BR OVC020
   FM280200 19008KT 2SM -SN BR OVC015
   FM280600 24008KT 5SM -SHSN BR OVC015
   FM281200 26010KT 6SM -SHSN OVC020
KJXN 272049Z 2721/2818 12009KT 1SM -SN BR OVC025
   FM280200 VRB06KT 4SM -FZDZSN BR OVC008
   FM280700 31005KT 5SM -SHSN BR OVC012
   FM281500 29008G14KT P6SM -SHSN BKN025 OVC040
KDTW 272007Z 2720/2824 16007KT 5SM -SN SCT025 OVC050
   FM272200 12006KT 1SM -SN BKN008 OVC014
   FM280200 08005KT 3SM -SHSN OVC008
   FM280600 02005KT 5SM BR BKN008 OVC015
   FM281000 29005KT P6SM SCT012 OVC018
   FM281800 26015G23KT P6SM -SHSN BKN018 OVC025
KFWA 271731Z 2718/2818 18009KT P6SM BKN100
   FM272300 21007KT P6SM -RASN BKN040
   FM280400 25007KT P6SM -RASN BKN025
   FM280700 27009KT P6SM -RASN BKN015
   FM281400 28011G18KT P6SM BKN025
KTOL 271728Z 2718/2818 17008KT P6SM VCSH OVC035
   FM272100 17007KT 3SM -SN BR OVC030
   FM272200 16006KT 2SM -SN BR OVC015
   FM280000 19005KT 2SM -SN OVC007
   FM280300 25005KT 1SM -RASN BR OVC005
   FM280900 28008KT 5SM BR OVC015
   FM281200 27009KT P6SM OVC015
   FM281600 27015G22KT P6SM OVC025
KFDY 271728Z 2718/2818 16011KT P6SM VCSH OVC035
   FM280000 19008KT 5SM -RASN BR OVC025
   FM280400 26008KT P6SM OVC015
   FM281200 27011KT P6SM OVC019
   FM281600 27014G20KT P6SM OVC025

METARs

KTOL 272127Z AUTO 15004KT 1SM R25/P6000FT -SN BKN022 OVC033 02/M03 A2985 RMK AO2 P0000 T00221028
KJXN 272126Z 09005KT 1SM -SN BR SCT007 BKN016 OVC027 M02/M03 A2981 RMK AO2 P0002 T10171033 $
KTDZ 272126Z AUTO 17010KT 1 1/2SM -SN OVC026 01/M03 A2988 RMK AO2 SNB06 P0000 T00111028 $
KDTW 272123Z 11006KT 1/2SM R03R/6000VP6000FT SN FZFG FEW005 OVC017 M01/M03 A2987 RMK AO2 P0001 T10111028 $
KDUH 272115Z AUTO 15007KT 120V180 3SM -SN BKN020 OVC035 00/M02 A2986 RMK AO2 T00041025
KFWA 272054Z 20007KT 10SM -RA BKN048 OVC060 04/M01 A2982 RMK AO2 RAB20 SLP105 P0000 60000 T00391006 56022 $
KFDY 272053Z AUTO 15013KT 10SM BKN049 OVC060 03/M03 A2985 RMK AO2 SLP110 T00281033 56028
KCLE 272051Z 13008KT 7SM -SN BKN045 OVC060 00/M04 A2988 RMK AO2 SLP143 P0000 60000 T00001039 58025

Satellite

TFRs